sensor_id;sensor_type;location;lat;lon;timestamp;temperature;humidity
32322;DHT22;61553;48.994;8.940;2023-02-01T00:00:15;5.00;99.90
32322;DHT22;61553;48.994;8.940;2023-02-01T00:02:40;4.90;99.90
32322;DHT22;61553;48.994;8.940;2023-02-01T00:05:10;4.90;99.90
32322;DHT22;61553;48.994;8.940;2023-02-01T00:07:37;4.90;99.90
32322;DHT22;61553;48.994;8.940;2023-02-01T00:10:04;4.90;99.90
32322;DHT22;61553;48.994;8.940;2023-02-01T00:12:31;4.90;99.90
32322;DHT22;61553;48.994;8.940;2023-02-01T00:14:57;4.90;99.90
32322;DHT22;61553;48.994;8.940;2023-02-01T00:17:22;5.10;99.90
32322;DHT22;61553;48.994;8.940;2023-02-01T00:19:48;5.10;99.90
32322;DHT22;61553;48.994;8.940;2023-02-01T00:22:14;5.20;99.90
32322;DHT22;61553;48.994;8.940;2023-02-01T00:24:39;5.10;99.90
32322;DHT22;61553;48.994;8.940;2023-02-01T00:27:05;5.10;99.90
32322;DHT22;61553;48.994;8.940;2023-02-01T00:29:31;5.20;99.90
32322;DHT22;61553;48.994;8.940;2023-02-01T00:31:56;5.20;99.90
32322;DHT22;61553;48.994;8.940;2023-02-01T00:34:22;5.20;99.90
32322;DHT22;61553;48.994;8.940;2023-02-01T00:36:48;5.20;99.90
32322;DHT22;61553;48.994;8.940;2023-02-01T00:39:14;5.10;99.90
32322;DHT22;61553;48.994;8.940;2023-02-01T00:41:40;5.10;99.90
32322;DHT22;61553;48.994;8.940;2023-02-01T00:44:06;5.10;99.90
32322;DHT22;61553;48.994;8.940;2023-02-01T00:46:31;5.10;99.90
32322;DHT22;61553;48.994;8.940;2023-02-01T00:48:57;5.10;99.90
32322;DHT22;61553;48.994;8.940;2023-02-01T00:51:26;5.20;99.90
32322;DHT22;61553;48.994;8.940;2023-02-01T00:53:52;5.10;99.90
32322;DHT22;61553;48.994;8.940;2023-02-01T00:56:17;5.10;99.90
32322;DHT22;61553;48.994;8.940;2023-02-01T00:58:43;5.10;99.90
32322;DHT22;61553;48.994;8.940;2023-02-01T01:01:13;5.20;99.90
32322;DHT22;61553;48.994;8.940;2023-02-01T01:03:41;5.20;99.90
32322;DHT22;61553;48.994;8.940;2023-02-01T01:06:13;5.20;99.90
32322;DHT22;61553;48.994;8.940;2023-02-01T01:08:40;5.20;99.90
32322;DHT22;61553;48.994;8.940;2023-02-01T01:11:14;5.20;99.90
32322;DHT22;61553;48.994;8.940;2023-02-01T01:13:41;5.20;99.90
32322;DHT22;61553;48.994;8.940;2023-02-01T01:16:08;5.20;99.90
32322;DHT22;61553;48.994;8.940;2023-02-01T01:18:34;5.20;99.90
32322;DHT22;61553;48.994;8.940;2023-02-01T01:21:00;5.30;99.90
32322;DHT22;61553;48.994;8.940;2023-02-01T01:23:27;5.30;99.90
32322;DHT22;61553;48.994;8.940;2023-02-01T01:25:53;5.40;99.90
32322;DHT22;61553;48.994;8.940;2023-02-01T01:28:19;5.40;99.90
32322;DHT22;61553;48.994;8.940;2023-02-01T01:30:44;5.40;99.90
32322;DHT22;61553;48.994;8.940;2023-02-01T01:33:10;5.40;99.90
32322;DHT22;61553;48.994;8.940;2023-02-01T01:35:35;5.40;99.90
32322;DHT22;61553;48.994;8.940;2023-02-01T01:38:01;5.50;99.90
32322;DHT22;61553;48.994;8.940;2023-02-01T01:40:28;5.50;99.90
32322;DHT22;61553;48.994;8.940;2023-02-01T01:42:55;5.40;99.90
32322;DHT22;61553;48.994;8.940;2023-02-01T01:45:39;5.40;99.90
32322;DHT22;61553;48.994;8.940;2023-02-01T01:48:17;5.40;99.90
32322;DHT22;61553;48.994;8.940;2023-02-01T01:50:57;5.50;99.90
32322;DHT22;61553;48.994;8.940;2023-02-01T01:53:30;5.50;99.90
32322;DHT22;61553;48.994;8.940;2023-02-01T01:55:57;5.40;99.90
32322;DHT22;61553;48.994;8.940;2023-02-01T01:58:25;5.40;99.90
32322;DHT22;61553;48.994;8.940;2023-02-01T02:00:52;5.40;99.90
32322;DHT22;61553;48.994;8.940;2023-02-01T02:03:27;5.40;99.90
32322;DHT22;61553;48.994;8.940;2023-02-01T02:05:57;5.50;99.90
32322;DHT22;61553;48.994;8.940;2023-02-01T02:08:26;5.50;99.90
32322;DHT22;61553;48.994;8.940;2023-02-01T02:10:52;5.50;99.90
32322;DHT22;61553;48.994;8.940;2023-02-01T02:13:39;5.60;99.90
32322;DHT22;61553;48.994;8.940;2023-02-01T02:18:48;5.50;99.90
32322;DHT22;61553;48.994;8.940;2023-02-01T02:21:31;5.50;99.90
32322;DHT22;61553;48.994;8.940;2023-02-01T02:24:19;5.50;99.90
32322;DHT22;61553;48.994;8.940;2023-02-01T02:32:44;5.60;99.90
32322;DHT22;61553;48.994;8.940;2023-02-01T02:35:45;5.50;99.90
32322;DHT22;61553;48.994;8.940;2023-02-01T02:38:34;5.60;99.90
32322;DHT22;61553;48.994;8.940;2023-02-01T02:41:13;5.50;99.90
32322;DHT22;61553;48.994;8.940;2023-02-01T02:44:19;5.50;99.90
32322;DHT22;61553;48.994;8.940;2023-02-01T02:47:13;5.60;99.90
32322;DHT22;61553;48.994;8.940;2023-02-01T02:52:47;5.50;99.90
32322;DHT22;61553;48.994;8.940;2023-02-01T02:55:33;5.50;99.90
32322;DHT22;61553;48.994;8.940;2023-02-01T02:58:03;5.60;99.90
32322;DHT22;61553;48.994;8.940;2023-02-01T03:00:48;5.60;99.90
32322;DHT22;61553;48.994;8.940;2023-02-01T03:03:37;5.60;99.90
32322;DHT22;61553;48.994;8.940;2023-02-01T03:06:23;5.60;99.90
32322;DHT22;61553;48.994;8.940;2023-02-01T03:08:49;5.60;99.90
32322;DHT22;61553;48.994;8.940;2023-02-01T03:11:20;5.60;99.90
32322;DHT22;61553;48.994;8.940;2023-02-01T03:13:58;5.60;99.90
32322;DHT22;61553;48.994;8.940;2023-02-01T03:16:41;5.60;99.90
32322;DHT22;61553;48.994;8.940;2023-02-01T03:19:25;5.60;99.90
32322;DHT22;61553;48.994;8.940;2023-02-01T03:22:22;5.60;99.90
32322;DHT22;61553;48.994;8.940;2023-02-01T03:24:56;5.70;99.90
32322;DHT22;61553;48.994;8.940;2023-02-01T03:27:34;5.70;99.90
32322;DHT22;61553;48.994;8.940;2023-02-01T03:30:24;5.70;99.90
32322;DHT22;61553;48.994;8.940;2023-02-01T03:32:55;5.70;99.90
32322;DHT22;61553;48.994;8.940;2023-02-01T03:43:43;5.70;99.90
32322;DHT22;61553;48.994;8.940;2023-02-01T03:46:17;5.60;99.90
32322;DHT22;61553;48.994;8.940;2023-02-01T03:48:44;5.60;99.90
32322;DHT22;61553;48.994;8.940;2023-02-01T03:51:10;5.70;99.90
32322;DHT22;61553;48.994;8.940;2023-02-01T03:53:39;5.70;99.90
32322;DHT22;61553;48.994;8.940;2023-02-01T03:56:06;5.60;99.90
32322;DHT22;61553;48.994;8.940;2023-02-01T03:58:32;5.60;99.90
32322;DHT22;61553;48.994;8.940;2023-02-01T04:00:59;5.60;99.90
32322;DHT22;61553;48.994;8.940;2023-02-01T04:03:26;5.50;99.90
32322;DHT22;61553;48.994;8.940;2023-02-01T04:05:52;5.50;99.90
32322;DHT22;61553;48.994;8.940;2023-02-01T04:08:22;5.50;99.90
32322;DHT22;61553;48.994;8.940;2023-02-01T04:10:47;5.50;99.90
32322;DHT22;61553;48.994;8.940;2023-02-01T04:13:13;5.60;99.90
32322;DHT22;61553;48.994;8.940;2023-02-01T04:15:39;5.50;99.90
32322;DHT22;61553;48.994;8.940;2023-02-01T04:18:04;5.50;99.90
32322;DHT22;61553;48.994;8.940;2023-02-01T04:20:30;5.50;99.90
32322;DHT22;61553;48.994;8.940;2023-02-01T04:22:56;5.50;99.90
32322;DHT22;61553;48.994;8.940;2023-02-01T04:25:22;5.50;99.90
32322;DHT22;61553;48.994;8.940;2023-02-01T04:27:47;5.60;99.90
32322;DHT22;61553;48.994;8.940;2023-02-01T04:30:13;5.60;99.90
32322;DHT22;61553;48.994;8.940;2023-02-01T04:32:39;5.60;99.90
32322;DHT22;61553;48.994;8.940;2023-02-01T04:35:06;5.60;99.90
32322;DHT22;61553;48.994;8.940;2023-02-01T04:37:32;5.50;99.90
32322;DHT22;61553;48.994;8.940;2023-02-01T04:39:58;5.40;99.90
32322;DHT22;61553;48.994;8.940;2023-02-01T04:42:23;5.30;99.90
32322;DHT22;61553;48.994;8.940;2023-02-01T04:44:49;5.20;99.90
32322;DHT22;61553;48.994;8.940;2023-02-01T04:47:14;5.10;99.90
32322;DHT22;61553;48.994;8.940;2023-02-01T04:49:41;5.00;99.90
32322;DHT22;61553;48.994;8.940;2023-02-01T04:52:07;5.00;99.90
32322;DHT22;61553;48.994;8.940;2023-02-01T04:54:33;5.00;99.90
32322;DHT22;61553;48.994;8.940;2023-02-01T04:56:58;5.00;99.90
32322;DHT22;61553;48.994;8.940;2023-02-01T04:59:24;5.00;99.90
32322;DHT22;61553;48.994;8.940;2023-02-01T05:01:50;5.00;99.90
32322;DHT22;61553;48.994;8.940;2023-02-01T05:04:15;5.10;99.90
32322;DHT22;61553;48.994;8.940;2023-02-01T05:06:44;5.10;99.90
32322;DHT22;61553;48.994;8.940;2023-02-01T05:09:09;5.10;99.90
32322;DHT22;61553;48.994;8.940;2023-02-01T05:11:35;5.10;99.90
32322;DHT22;61553;48.994;8.940;2023-02-01T05:14:19;5.10;99.90
32322;DHT22;61553;48.994;8.940;2023-02-01T05:16:45;5.00;99.90
32322;DHT22;61553;48.994;8.940;2023-02-01T05:19:11;5.00;99.90
32322;DHT22;61553;48.994;8.940;2023-02-01T05:21:36;4.90;99.90
32322;DHT22;61553;48.994;8.940;2023-02-01T05:24:02;4.90;99.90
32322;DHT22;61553;48.994;8.940;2023-02-01T05:26:40;4.80;99.90
32322;DHT22;61553;48.994;8.940;2023-02-01T05:29:06;4.80;99.90
32322;DHT22;61553;48.994;8.940;2023-02-01T05:31:32;4.80;99.90
32322;DHT22;61553;48.994;8.940;2023-02-01T05:33:58;4.80;99.90
32322;DHT22;61553;48.994;8.940;2023-02-01T05:36:24;4.80;99.90
32322;DHT22;61553;48.994;8.940;2023-02-01T05:38:49;4.90;99.90
32322;DHT22;61553;48.994;8.940;2023-02-01T05:41:15;4.90;99.90
32322;DHT22;61553;48.994;8.940;2023-02-01T05:43:41;4.90;99.90
32322;DHT22;61553;48.994;8.940;2023-02-01T05:46:06;4.90;99.90
32322;DHT22;61553;48.994;8.940;2023-02-01T05:48:32;4.90;99.90
32322;DHT22;61553;48.994;8.940;2023-02-01T05:50:58;5.00;99.90
32322;DHT22;61553;48.994;8.940;2023-02-01T05:53:23;5.00;99.90
32322;DHT22;61553;48.994;8.940;2023-02-01T05:55:49;5.10;99.90
32322;DHT22;61553;48.994;8.940;2023-02-01T05:58:14;5.10;99.90
32322;DHT22;61553;48.994;8.940;2023-02-01T06:00:40;5.10;99.90
32322;DHT22;61553;48.994;8.940;2023-02-01T06:03:06;5.10;99.90
32322;DHT22;61553;48.994;8.940;2023-02-01T06:05:32;5.10;99.90
32322;DHT22;61553;48.994;8.940;2023-02-01T06:07:57;5.10;99.90
32322;DHT22;61553;48.994;8.940;2023-02-01T06:10:23;5.10;99.90
32322;DHT22;61553;48.994;8.940;2023-02-01T06:12:49;5.10;99.90
32322;DHT22;61553;48.994;8.940;2023-02-01T06:15:15;5.20;99.90
32322;DHT22;61553;48.994;8.940;2023-02-01T06:17:42;5.20;99.90
32322;DHT22;61553;48.994;8.940;2023-02-01T06:20:09;5.20;99.90
32322;DHT22;61553;48.994;8.940;2023-02-01T06:22:35;5.20;99.90
32322;DHT22;61553;48.994;8.940;2023-02-01T06:25:04;5.30;99.90
32322;DHT22;61553;48.994;8.940;2023-02-01T06:27:31;5.30;99.90
32322;DHT22;61553;48.994;8.940;2023-02-01T06:29:57;5.20;99.90
32322;DHT22;61553;48.994;8.940;2023-02-01T06:32:22;5.20;99.90
32322;DHT22;61553;48.994;8.940;2023-02-01T06:34:49;5.20;99.90
32322;DHT22;61553;48.994;8.940;2023-02-01T06:37:14;5.20;99.90
32322;DHT22;61553;48.994;8.940;2023-02-01T06:39:40;5.10;99.90
32322;DHT22;61553;48.994;8.940;2023-02-01T06:42:06;5.10;99.90
32322;DHT22;61553;48.994;8.940;2023-02-01T06:44:31;5.10;99.90
32322;DHT22;61553;48.994;8.940;2023-02-01T06:46:57;5.10;99.90
32322;DHT22;61553;48.994;8.940;2023-02-01T06:49:22;5.10;99.90
32322;DHT22;61553;48.994;8.940;2023-02-01T06:51:48;5.10;99.90
32322;DHT22;61553;48.994;8.940;2023-02-01T06:54:14;5.00;99.90
32322;DHT22;61553;48.994;8.940;2023-02-01T06:56:39;5.00;99.90
32322;DHT22;61553;48.994;8.940;2023-02-01T06:59:06;4.90;99.90
32322;DHT22;61553;48.994;8.940;2023-02-01T07:01:31;4.90;99.90
32322;DHT22;61553;48.994;8.940;2023-02-01T07:03:57;4.90;99.90
32322;DHT22;61553;48.994;8.940;2023-02-01T07:06:23;4.80;99.90
32322;DHT22;61553;48.994;8.940;2023-02-01T07:08:49;4.90;99.90
32322;DHT22;61553;48.994;8.940;2023-02-01T07:11:16;4.90;99.90
32322;DHT22;61553;48.994;8.940;2023-02-01T07:13:42;4.80;99.90
32322;DHT22;61553;48.994;8.940;2023-02-01T07:16:12;4.90;99.90
32322;DHT22;61553;48.994;8.940;2023-02-01T07:18:39;4.90;99.90
32322;DHT22;61553;48.994;8.940;2023-02-01T07:21:04;4.80;99.90
32322;DHT22;61553;48.994;8.940;2023-02-01T07:23:30;4.80;99.90
32322;DHT22;61553;48.994;8.940;2023-02-01T07:25:58;4.80;99.90
32322;DHT22;61553;48.994;8.940;2023-02-01T07:28:24;4.80;99.90
32322;DHT22;61553;48.994;8.940;2023-02-01T07:30:49;4.90;99.90
32322;DHT22;61553;48.994;8.940;2023-02-01T07:33:22;4.90;99.90
32322;DHT22;61553;48.994;8.940;2023-02-01T07:35:49;4.80;99.90
32322;DHT22;61553;48.994;8.940;2023-02-01T07:38:15;4.90;99.90
32322;DHT22;61553;48.994;8.940;2023-02-01T07:40:41;4.90;99.90
32322;DHT22;61553;48.994;8.940;2023-02-01T07:43:07;4.90;99.90
32322;DHT22;61553;48.994;8.940;2023-02-01T07:45:34;5.00;99.90
32322;DHT22;61553;48.994;8.940;2023-02-01T07:48:00;4.90;99.90
32322;DHT22;61553;48.994;8.940;2023-02-01T07:50:26;4.90;99.90
32322;DHT22;61553;48.994;8.940;2023-02-01T07:52:52;5.00;99.90
32322;DHT22;61553;48.994;8.940;2023-02-01T07:55:19;5.00;99.90
32322;DHT22;61553;48.994;8.940;2023-02-01T07:57:45;5.00;99.90
32322;DHT22;61553;48.994;8.940;2023-02-01T08:00:12;5.00;99.90
32322;DHT22;61553;48.994;8.940;2023-02-01T08:03:00;5.00;99.90
32322;DHT22;61553;48.994;8.940;2023-02-01T08:05:26;5.20;99.90
32322;DHT22;61553;48.994;8.940;2023-02-01T08:07:52;5.20;99.90
32322;DHT22;61553;48.994;8.940;2023-02-01T08:10:19;5.30;99.90
32322;DHT22;61553;48.994;8.940;2023-02-01T08:12:45;5.30;99.90
32322;DHT22;61553;48.994;8.940;2023-02-01T08:15:17;5.30;99.90
32322;DHT22;61553;48.994;8.940;2023-02-01T08:17:50;5.50;99.90
32322;DHT22;61553;48.994;8.940;2023-02-01T08:20:17;5.60;99.90
32322;DHT22;61553;48.994;8.940;2023-02-01T08:22:43;5.70;99.90
32322;DHT22;61553;48.994;8.940;2023-02-01T08:25:09;5.90;99.90
32322;DHT22;61553;48.994;8.940;2023-02-01T08:27:35;6.00;99.90
32322;DHT22;61553;48.994;8.940;2023-02-01T08:30:00;6.10;99.90
32322;DHT22;61553;48.994;8.940;2023-02-01T08:32:26;6.00;99.90
32322;DHT22;61553;48.994;8.940;2023-02-01T08:34:53;6.00;99.90
32322;DHT22;61553;48.994;8.940;2023-02-01T08:37:19;6.00;99.90
32322;DHT22;61553;48.994;8.940;2023-02-01T08:39:45;6.00;99.90
32322;DHT22;61553;48.994;8.940;2023-02-01T08:42:11;5.90;99.90
32322;DHT22;61553;48.994;8.940;2023-02-01T08:44:56;5.80;99.90
32322;DHT22;61553;48.994;8.940;2023-02-01T08:47:22;5.90;99.90
32322;DHT22;61553;48.994;8.940;2023-02-01T08:49:48;5.90;99.90
32322;DHT22;61553;48.994;8.940;2023-02-01T08:52:14;5.80;99.90
32322;DHT22;61553;48.994;8.940;2023-02-01T08:54:39;5.90;99.90
32322;DHT22;61553;48.994;8.940;2023-02-01T08:57:07;5.90;99.90
32322;DHT22;61553;48.994;8.940;2023-02-01T08:59:32;5.90;99.90
32322;DHT22;61553;48.994;8.940;2023-02-01T09:01:58;5.90;99.90
32322;DHT22;61553;48.994;8.940;2023-02-01T09:04:24;5.90;99.90
32322;DHT22;61553;48.994;8.940;2023-02-01T09:06:50;6.00;99.90
32322;DHT22;61553;48.994;8.940;2023-02-01T09:09:15;6.30;99.90
32322;DHT22;61553;48.994;8.940;2023-02-01T09:11:41;6.60;99.90
32322;DHT22;61553;48.994;8.940;2023-02-01T09:14:07;6.70;99.90
32322;DHT22;61553;48.994;8.940;2023-02-01T09:16:32;6.70;99.90
32322;DHT22;61553;48.994;8.940;2023-02-01T09:18:58;6.70;99.90
32322;DHT22;61553;48.994;8.940;2023-02-01T09:21:24;6.60;99.90
32322;DHT22;61553;48.994;8.940;2023-02-01T09:23:51;6.50;99.90
32322;DHT22;61553;48.994;8.940;2023-02-01T09:26:17;6.40;99.90
32322;DHT22;61553;48.994;8.940;2023-02-01T09:28:42;6.40;99.90
32322;DHT22;61553;48.994;8.940;2023-02-01T09:31:08;6.60;99.90
32322;DHT22;61553;48.994;8.940;2023-02-01T09:33:34;7.10;99.90
32322;DHT22;61553;48.994;8.940;2023-02-01T09:36:02;7.30;99.90
32322;DHT22;61553;48.994;8.940;2023-02-01T09:38:29;7.60;99.90
32322;DHT22;61553;48.994;8.940;2023-02-01T09:40:55;8.00;99.90
32322;DHT22;61553;48.994;8.940;2023-02-01T09:43:36;8.30;99.90
32322;DHT22;61553;48.994;8.940;2023-02-01T09:46:31;8.60;99.90
32322;DHT22;61553;48.994;8.940;2023-02-01T09:49:01;8.70;99.90
32322;DHT22;61553;48.994;8.940;2023-02-01T09:51:36;9.10;99.90
32322;DHT22;61553;48.994;8.940;2023-02-01T09:54:26;9.20;99.90
32322;DHT22;61553;48.994;8.940;2023-02-01T09:57:11;9.60;99.90
32322;DHT22;61553;48.994;8.940;2023-02-01T09:59:43;9.60;99.90
32322;DHT22;61553;48.994;8.940;2023-02-01T10:02:19;9.30;99.90
32322;DHT22;61553;48.994;8.940;2023-02-01T10:04:47;9.60;99.90
32322;DHT22;61553;48.994;8.940;2023-02-01T10:20:57;11.00;99.90
32322;DHT22;61553;48.994;8.940;2023-02-01T10:26:19;9.70;99.90
32322;DHT22;61553;48.994;8.940;2023-02-01T10:28:52;9.60;99.90
32322;DHT22;61553;48.994;8.940;2023-02-01T10:31:21;9.90;99.90
32322;DHT22;61553;48.994;8.940;2023-02-01T10:33:55;10.00;99.90
32322;DHT22;61553;48.994;8.940;2023-02-01T10:36:26;9.70;99.90
32322;DHT22;61553;48.994;8.940;2023-02-01T10:38:53;9.60;99.90
32322;DHT22;61553;48.994;8.940;2023-02-01T10:41:23;9.30;99.90
32322;DHT22;61553;48.994;8.940;2023-02-01T10:43:55;8.90;99.90
32322;DHT22;61553;48.994;8.940;2023-02-01T10:46:25;8.60;99.90
32322;DHT22;61553;48.994;8.940;2023-02-01T10:48:54;8.30;99.90
32322;DHT22;61553;48.994;8.940;2023-02-01T10:51:24;8.50;99.90
32322;DHT22;61553;48.994;8.940;2023-02-01T10:54:04;8.40;99.90
32322;DHT22;61553;48.994;8.940;2023-02-01T10:56:37;8.20;99.90
32322;DHT22;61553;48.994;8.940;2023-02-01T10:59:05;7.90;99.90
32322;DHT22;61553;48.994;8.940;2023-02-01T11:01:37;7.70;99.90
32322;DHT22;61553;48.994;8.940;2023-02-01T11:04:05;7.60;99.90
32322;DHT22;61553;48.994;8.940;2023-02-01T11:06:36;8.00;99.90
32322;DHT22;61553;48.994;8.940;2023-02-01T11:11:31;8.50;99.90
32322;DHT22;61553;48.994;8.940;2023-02-01T11:14:10;8.50;99.90
32322;DHT22;61553;48.994;8.940;2023-02-01T11:16:39;8.50;99.90
32322;DHT22;61553;48.994;8.940;2023-02-01T11:19:06;8.30;99.90
32322;DHT22;61553;48.994;8.940;2023-02-01T11:21:33;8.30;99.90
32322;DHT22;61553;48.994;8.940;2023-02-01T11:24:22;8.30;99.90
32322;DHT22;61553;48.994;8.940;2023-02-01T11:26:48;8.20;99.90
32322;DHT22;61553;48.994;8.940;2023-02-01T11:29:17;8.00;99.90
32322;DHT22;61553;48.994;8.940;2023-02-01T11:31:45;7.90;99.90
32322;DHT22;61553;48.994;8.940;2023-02-01T11:34:15;7.80;99.90
32322;DHT22;61553;48.994;8.940;2023-02-01T11:36:42;7.70;99.90
32322;DHT22;61553;48.994;8.940;2023-02-01T11:41:44;7.70;99.90
32322;DHT22;61553;48.994;8.940;2023-02-01T11:44:22;7.60;99.90
32322;DHT22;61553;48.994;8.940;2023-02-01T11:46:48;7.60;99.90
32322;DHT22;61553;48.994;8.940;2023-02-01T11:49:23;7.70;99.90
32322;DHT22;61553;48.994;8.940;2023-02-01T12:03:37;7.50;99.90
32322;DHT22;61553;48.994;8.940;2023-02-01T12:06:08;7.40;99.90
32322;DHT22;61553;48.994;8.940;2023-02-01T12:25:21;7.30;99.90
32322;DHT22;61553;48.994;8.940;2023-02-01T12:27:55;7.30;99.90
32322;DHT22;61553;48.994;8.940;2023-02-01T12:30:46;7.30;99.90
32322;DHT22;61553;48.994;8.940;2023-02-01T12:36:08;7.40;99.90
32322;DHT22;61553;48.994;8.940;2023-02-01T12:41:52;7.50;99.90
32322;DHT22;61553;48.994;8.940;2023-02-01T12:44:30;7.50;99.90
32322;DHT22;61553;48.994;8.940;2023-02-01T12:47:09;7.60;99.90
32322;DHT22;61553;48.994;8.940;2023-02-01T12:50:14;7.50;99.90
32322;DHT22;61553;48.994;8.940;2023-02-01T12:55:36;7.60;99.90
32322;DHT22;61553;48.994;8.940;2023-02-01T12:58:20;7.70;99.90
32322;DHT22;61553;48.994;8.940;2023-02-01T13:03:34;7.70;99.90
32322;DHT22;61553;48.994;8.940;2023-02-01T13:06:23;7.70;99.90
32322;DHT22;61553;48.994;8.940;2023-02-01T13:09:15;7.60;99.90
32322;DHT22;61553;48.994;8.940;2023-02-01T13:11:44;7.60;99.90
32322;DHT22;61553;48.994;8.940;2023-02-01T13:14:24;7.50;99.90
32322;DHT22;61553;48.994;8.940;2023-02-01T13:17:19;7.50;99.90
32322;DHT22;61553;48.994;8.940;2023-02-01T13:19:57;7.50;99.90
32322;DHT22;61553;48.994;8.940;2023-02-01T13:22:37;7.60;99.90
32322;DHT22;61553;48.994;8.940;2023-02-01T13:25:46;7.60;99.90
32322;DHT22;61553;48.994;8.940;2023-02-01T13:28:17;7.70;99.90
32322;DHT22;61553;48.994;8.940;2023-02-01T13:31:10;7.80;99.90
32322;DHT22;61553;48.994;8.940;2023-02-01T13:36:36;7.80;99.90
32322;DHT22;61553;48.994;8.940;2023-02-01T13:39:31;7.70;99.90
32322;DHT22;61553;48.994;8.940;2023-02-01T13:42:05;7.50;99.90
32322;DHT22;61553;48.994;8.940;2023-02-01T13:45:03;7.50;99.90
32322;DHT22;61553;48.994;8.940;2023-02-01T13:47:39;7.50;99.90
32322;DHT22;61553;48.994;8.940;2023-02-01T13:50:49;7.60;99.90
32322;DHT22;61553;48.994;8.940;2023-02-01T13:55:41;7.50;99.90
32322;DHT22;61553;48.994;8.940;2023-02-01T13:58:38;7.50;99.90
32322;DHT22;61553;48.994;8.940;2023-02-01T14:03:56;7.40;99.90
32322;DHT22;61553;48.994;8.940;2023-02-01T14:09:16;7.20;99.90
32322;DHT22;61553;48.994;8.940;2023-02-01T14:11:46;7.20;99.90
32322;DHT22;61553;48.994;8.940;2023-02-01T14:19:27;6.90;99.90
32322;DHT22;61553;48.994;8.940;2023-02-01T14:21:55;6.90;99.90
32322;DHT22;61553;48.994;8.940;2023-02-01T14:24:34;6.70;99.90
32322;DHT22;61553;48.994;8.940;2023-02-01T14:27:25;6.60;99.90
32322;DHT22;61553;48.994;8.940;2023-02-01T14:29:57;6.60;99.90
32322;DHT22;61553;48.994;8.940;2023-02-01T14:32:36;6.70;99.90
32322;DHT22;61553;48.994;8.940;2023-02-01T14:35:07;6.60;99.90
32322;DHT22;61553;48.994;8.940;2023-02-01T14:37:38;6.60;99.90
32322;DHT22;61553;48.994;8.940;2023-02-01T14:40:06;6.60;99.90
32322;DHT22;61553;48.994;8.940;2023-02-01T15:04:06;6.60;99.90
32322;DHT22;61553;48.994;8.940;2023-02-01T15:09:15;6.50;99.90
32322;DHT22;61553;48.994;8.940;2023-02-01T15:14:45;6.40;99.90
32322;DHT22;61553;48.994;8.940;2023-02-01T15:17:21;6.40;99.90
32322;DHT22;61553;48.994;8.940;2023-02-01T15:19:58;6.40;99.90
32322;DHT22;61553;48.994;8.940;2023-02-01T15:22:25;6.50;99.90
32322;DHT22;61553;48.994;8.940;2023-02-01T15:24:53;6.50;99.90
32322;DHT22;61553;48.994;8.940;2023-02-01T15:27:19;6.60;99.90
32322;DHT22;61553;48.994;8.940;2023-02-01T15:29:45;6.60;99.90
32322;DHT22;61553;48.994;8.940;2023-02-01T15:32:30;6.50;99.90
32322;DHT22;61553;48.994;8.940;2023-02-01T15:34:59;6.60;99.90
32322;DHT22;61553;48.994;8.940;2023-02-01T15:37:26;6.50;99.90
32322;DHT22;61553;48.994;8.940;2023-02-01T15:40:19;6.50;99.90
32322;DHT22;61553;48.994;8.940;2023-02-01T15:42:53;6.50;99.90
32322;DHT22;61553;48.994;8.940;2023-02-01T15:45:27;6.40;99.90
32322;DHT22;61553;48.994;8.940;2023-02-01T15:47:55;6.50;99.90
32322;DHT22;61553;48.994;8.940;2023-02-01T15:50:21;6.50;99.90
32322;DHT22;61553;48.994;8.940;2023-02-01T15:52:52;6.40;99.90
32322;DHT22;61553;48.994;8.940;2023-02-01T15:55:20;6.40;99.90
32322;DHT22;61553;48.994;8.940;2023-02-01T15:57:47;6.40;99.90
32322;DHT22;61553;48.994;8.940;2023-02-01T16:00:26;6.40;99.90
32322;DHT22;61553;48.994;8.940;2023-02-01T16:02:55;6.40;99.90
32322;DHT22;61553;48.994;8.940;2023-02-01T16:08:14;6.40;99.90
32322;DHT22;61553;48.994;8.940;2023-02-01T16:10:45;6.40;99.90
32322;DHT22;61553;48.994;8.940;2023-02-01T16:13:12;6.40;99.90
32322;DHT22;61553;48.994;8.940;2023-02-01T16:15:38;6.40;99.90
32322;DHT22;61553;48.994;8.940;2023-02-01T16:18:05;6.40;99.90
32322;DHT22;61553;48.994;8.940;2023-02-01T16:20:33;6.40;99.90
32322;DHT22;61553;48.994;8.940;2023-02-01T16:23:01;6.40;99.90
32322;DHT22;61553;48.994;8.940;2023-02-01T16:25:27;6.30;99.90
32322;DHT22;61553;48.994;8.940;2023-02-01T16:27:52;6.30;99.90
32322;DHT22;61553;48.994;8.940;2023-02-01T16:30:18;6.30;99.90
32322;DHT22;61553;48.994;8.940;2023-02-01T16:32:59;6.30;99.90
32322;DHT22;61553;48.994;8.940;2023-02-01T16:35:30;6.40;99.90
32322;DHT22;61553;48.994;8.940;2023-02-01T16:38:04;6.40;99.90
32322;DHT22;61553;48.994;8.940;2023-02-01T16:40:37;6.40;99.90
32322;DHT22;61553;48.994;8.940;2023-02-01T16:43:18;6.40;99.90
32322;DHT22;61553;48.994;8.940;2023-02-01T16:45:45;6.30;99.90
32322;DHT22;61553;48.994;8.940;2023-02-01T16:48:27;6.30;99.90
32322;DHT22;61553;48.994;8.940;2023-02-01T16:50:59;6.30;99.90
32322;DHT22;61553;48.994;8.940;2023-02-01T16:53:27;6.30;99.90
32322;DHT22;61553;48.994;8.940;2023-02-01T16:55:54;6.20;99.90
32322;DHT22;61553;48.994;8.940;2023-02-01T16:58:20;6.30;99.90
32322;DHT22;61553;48.994;8.940;2023-02-01T17:00:47;6.30;99.90
32322;DHT22;61553;48.994;8.940;2023-02-01T17:03:13;6.20;99.90
32322;DHT22;61553;48.994;8.940;2023-02-01T17:05:43;6.20;99.90
32322;DHT22;61553;48.994;8.940;2023-02-01T17:08:13;6.20;99.90
32322;DHT22;61553;48.994;8.940;2023-02-01T17:10:40;6.30;99.90
32322;DHT22;61553;48.994;8.940;2023-02-01T17:13:13;6.30;99.90
32322;DHT22;61553;48.994;8.940;2023-02-01T17:15:39;6.30;99.90
32322;DHT22;61553;48.994;8.940;2023-02-01T17:18:05;6.30;99.90
32322;DHT22;61553;48.994;8.940;2023-02-01T17:20:33;6.40;99.90
32322;DHT22;61553;48.994;8.940;2023-02-01T17:22:59;6.40;99.90
32322;DHT22;61553;48.994;8.940;2023-02-01T17:25:24;6.50;99.90
32322;DHT22;61553;48.994;8.940;2023-02-01T17:27:51;6.40;99.90
32322;DHT22;61553;48.994;8.940;2023-02-01T17:30:17;6.40;99.90
32322;DHT22;61553;48.994;8.940;2023-02-01T17:32:43;6.30;99.90
32322;DHT22;61553;48.994;8.940;2023-02-01T17:35:21;6.40;99.90
32322;DHT22;61553;48.994;8.940;2023-02-01T17:37:47;6.30;99.90
32322;DHT22;61553;48.994;8.940;2023-02-01T17:40:13;6.30;99.90
32322;DHT22;61553;48.994;8.940;2023-02-01T17:42:39;6.30;99.90
32322;DHT22;61553;48.994;8.940;2023-02-01T17:45:34;6.40;99.90
32322;DHT22;61553;48.994;8.940;2023-02-01T17:48:06;6.30;99.90
32322;DHT22;61553;48.994;8.940;2023-02-01T17:50:34;6.30;99.90
32322;DHT22;61553;48.994;8.940;2023-02-01T17:53:00;6.30;99.90
32322;DHT22;61553;48.994;8.940;2023-02-01T17:55:27;6.30;99.90
32322;DHT22;61553;48.994;8.940;2023-02-01T17:57:53;6.30;99.90
32322;DHT22;61553;48.994;8.940;2023-02-01T18:00:20;6.30;99.90
32322;DHT22;61553;48.994;8.940;2023-02-01T18:02:46;6.30;99.90
32322;DHT22;61553;48.994;8.940;2023-02-01T18:07:53;6.20;99.90
32322;DHT22;61553;48.994;8.940;2023-02-01T18:10:18;6.30;99.90
32322;DHT22;61553;48.994;8.940;2023-02-01T18:12:44;6.30;99.90
32322;DHT22;61553;48.994;8.940;2023-02-01T18:15:21;6.30;99.90